createdAt,value
2018-06-18T00:01:24.594Z,82.60
2018-06-18T00:06:21.330Z,82.60
2018-06-18T00:08:49.814Z,82.80
2018-06-18T00:11:18.346Z,83.10
2018-06-18T00:13:46.782Z,83.90
2018-06-18T00:16:15.238Z,83.20
2018-06-18T00:18:43.727Z,83.60
2018-06-18T00:21:12.174Z,83.60
2018-06-18T00:23:40.774Z,83.80
2018-06-18T00:26:09.278Z,84.00
2018-06-18T00:28:37.755Z,84.10
2018-06-18T00:31:06.409Z,84.40
2018-06-18T00:36:03.165Z,84.80
2018-06-18T00:38:31.650Z,85.10
2018-06-18T00:41:00.259Z,85.50
2018-06-18T00:43:28.724Z,85.70
2018-06-18T00:45:57.303Z,85.80
2018-06-18T00:50:53.970Z,86.50
2018-06-18T00:53:22.424Z,86.50
2018-06-18T00:56:02.190Z,86.70
2018-06-18T01:00:58.768Z,87.00
2018-06-18T01:03:27.286Z,87.10
2018-06-18T01:05:55.870Z,87.10
2018-06-18T01:08:24.497Z,87.30
2018-06-18T01:10:53.066Z,87.40
2018-06-18T01:13:21.566Z,87.40
2018-06-18T01:15:50.108Z,87.30
2018-06-18T01:18:18.900Z,87.50
2018-06-18T01:20:47.356Z,87.40
2018-06-18T01:23:54.084Z,87.40
2018-06-18T01:26:22.670Z,87.40
2018-06-18T01:28:51.148Z,87.30
2018-06-18T01:31:19.623Z,87.30
2018-06-18T01:33:48.521Z,87.70
2018-06-18T01:36:16.988Z,87.80
2018-06-18T01:38:45.474Z,87.90
2018-06-18T01:41:13.966Z,88.00
2018-06-18T01:43:42.442Z,88.30
2018-06-18T01:46:10.977Z,88.20
2018-06-18T01:48:39.466Z,88.20
2018-06-18T01:51:08.038Z,88.30
2018-06-18T01:56:04.854Z,88.80
2018-06-18T01:58:33.470Z,88.90
2018-06-18T02:01:02.014Z,88.90
2018-06-18T02:03:30.548Z,89.20
2018-06-18T02:05:59.078Z,89.50
2018-06-18T02:08:27.609Z,89.90
2018-06-18T02:10:56.259Z,90.20
2018-06-18T02:13:24.877Z,90.30
2018-06-18T02:15:53.376Z,90.50
2018-06-18T02:20:49.998Z,90.80
2018-06-18T02:23:18.506Z,90.90
2018-06-18T02:25:46.971Z,90.90
2018-06-18T02:28:20.766Z,90.90
2018-06-18T02:30:54.617Z,90.90
2018-06-18T02:33:28.385Z,90.90
2018-06-18T02:36:02.110Z,90.90
2018-06-18T02:38:32.726Z,90.80
2018-06-18T02:41:01.226Z,90.80
2018-06-18T02:43:29.679Z,90.70
2018-06-18T02:45:58.207Z,90.70
2018-06-18T02:50:54.864Z,90.80
2018-06-18T02:53:23.350Z,90.80
2018-06-18T02:55:52.518Z,90.90
2018-06-18T02:58:20.977Z,91.00
2018-06-18T03:00:49.430Z,91.10
2018-06-18T03:05:46.038Z,91.50
2018-06-18T03:08:14.534Z,91.50
2018-06-18T03:10:43.001Z,91.50
2018-06-18T03:13:11.614Z,91.40
2018-06-18T03:15:40.156Z,91.40
2018-06-18T03:18:12.824Z,91.40
2018-06-18T03:20:46.596Z,91.40
2018-06-18T03:23:20.285Z,91.20
2018-06-18T03:25:54.135Z,91.50
2018-06-18T03:28:27.790Z,91.00
2018-06-18T03:30:56.322Z,90.90
2018-06-18T03:33:24.866Z,90.80
2018-06-18T03:35:53.359Z,90.90
2018-06-18T03:38:21.878Z,90.80
2018-06-18T03:40:50.454Z,90.70
2018-06-18T03:43:19.062Z,90.50
2018-06-18T03:45:47.541Z,90.30
2018-06-18T03:48:15.978Z,90.20
2018-06-18T03:50:44.442Z,90.30
2018-06-18T03:53:14.762Z,90.20
2018-06-18T03:55:48.650Z,90.10
2018-06-18T03:58:17.388Z,90.10
2018-06-18T04:03:00.245Z,89.80
2018-06-18T04:05:34.127Z,89.50
2018-06-18T04:08:09.896Z,88.90
2018-06-18T04:10:44.192Z,88.90
2018-06-18T04:13:12.675Z,88.90
2018-06-18T04:15:41.292Z,89.30
2018-06-18T04:18:09.810Z,89.40
2018-06-18T04:20:44.604Z,89.60
2018-06-18T04:23:13.110Z,89.80
2018-06-18T04:25:41.695Z,90.00
2018-06-18T04:28:10.395Z,90.10
2018-06-18T04:30:38.924Z,90.00
2018-06-18T04:33:07.990Z,90.00
2018-06-18T04:35:36.442Z,90.00
2018-06-18T04:38:05.116Z,90.00
2018-06-18T04:43:07.145Z,90.40
2018-06-18T04:45:41.190Z,90.50
2018-06-18T04:48:14.963Z,90.70
2018-06-18T04:50:48.818Z,90.90
2018-06-18T04:55:45.518Z,91.00
2018-06-18T04:58:14.015Z,90.80
2018-06-18T05:00:59.441Z,90.60
2018-06-18T05:03:28.062Z,90.50
2018-06-18T05:05:56.555Z,90.30
2018-06-18T05:08:44.485Z,89.80
2018-06-18T05:11:12.907Z,88.00
2018-06-18T05:13:41.356Z,86.90
2018-06-18T05:16:10.115Z,86.30
2018-06-18T05:21:06.718Z,86.10
2018-06-18T05:23:35.270Z,85.30
2018-06-18T05:26:03.748Z,83.80
2018-06-18T05:28:32.204Z,84.00
2018-06-18T05:31:00.733Z,83.20
2018-06-18T05:33:29.174Z,82.30
2018-06-18T05:35:57.626Z,82.20
2018-06-18T05:38:35.464Z,82.30
2018-06-18T05:41:03.963Z,82.50
2018-06-18T05:43:32.598Z,81.80
2018-06-18T05:46:01.275Z,79.40
2018-06-18T05:48:29.762Z,79.50
2018-06-18T05:50:58.286Z,80.30
2018-06-18T05:53:26.754Z,80.60
2018-06-18T05:55:55.336Z,81.10
2018-06-18T05:58:23.949Z,80.40
2018-06-18T06:03:20.748Z,78.80
2018-06-18T06:05:49.174Z,78.00
2018-06-18T06:08:17.662Z,77.40
2018-06-18T06:10:46.118Z,76.70
2018-06-18T06:13:14.570Z,76.30
2018-06-18T06:15:43.107Z,75.20
2018-06-18T06:18:11.569Z,75.30
2018-06-18T06:20:47.115Z,75.10
2018-06-18T06:23:15.575Z,74.60
2018-06-18T06:25:44.058Z,74.30
2018-06-18T06:28:12.562Z,74.00
2018-06-18T06:30:41.139Z,73.80
2018-06-18T06:33:09.714Z,72.30
2018-06-18T06:35:40.227Z,70.30
2018-06-18T06:38:08.711Z,69.80
2018-06-18T06:40:37.234Z,69.60
2018-06-18T06:43:06.102Z,69.70
2018-06-18T06:45:34.679Z,69.50
2018-06-18T06:48:03.171Z,69.10
2018-06-18T06:50:31.854Z,68.30
2018-06-18T06:53:00.314Z,67.40
2018-06-18T06:55:29.265Z,67.90
2018-06-18T06:57:57.777Z,67.60
2018-06-18T07:00:26.278Z,66.90
2018-06-18T07:02:54.758Z,67.80
2018-06-18T07:05:23.255Z,66.20
2018-06-18T07:07:51.701Z,65.80
2018-06-18T07:10:20.208Z,67.10
2018-06-18T07:12:48.766Z,67.00
2018-06-18T07:15:17.259Z,67.10
2018-06-18T07:17:45.765Z,65.90
2018-06-18T07:20:14.435Z,65.50
2018-06-18T07:22:42.920Z,65.20
2018-06-18T07:25:11.498Z,65.00
2018-06-18T07:27:39.978Z,65.80
2018-06-18T07:30:08.717Z,65.70
2018-06-18T07:32:37.182Z,64.90
2018-06-18T07:35:05.806Z,66.10
2018-06-18T07:37:34.266Z,67.00
2018-06-18T07:40:02.830Z,65.60
2018-06-18T07:42:31.387Z,65.80
2018-06-18T07:44:59.871Z,66.40
2018-06-18T07:47:28.402Z,66.90
2018-06-18T07:49:57.030Z,67.40
2018-06-18T07:52:25.494Z,67.80
2018-06-18T07:54:53.973Z,67.80
2018-06-18T07:57:22.502Z,66.90
2018-06-18T07:59:50.956Z,67.30
2018-06-18T08:02:20.466Z,66.60
2018-06-18T08:04:49.110Z,67.00
2018-06-18T08:07:17.610Z,65.70
2018-06-18T08:09:46.257Z,65.50
2018-06-18T08:12:14.900Z,63.50
2018-06-18T08:14:43.518Z,62.30
2018-06-18T08:17:12.000Z,62.50
2018-06-18T08:19:40.546Z,62.60
2018-06-18T08:22:09.058Z,62.80
2018-06-18T08:27:05.970Z,59.70
2018-06-18T08:29:34.485Z,58.90
2018-06-18T08:32:02.986Z,59.40
2018-06-18T08:34:31.618Z,57.80
2018-06-18T08:37:00.120Z,56.90
2018-06-18T08:39:28.766Z,56.90
2018-06-18T08:41:57.343Z,58.80
2018-06-18T08:44:25.889Z,58.20
2018-06-18T08:46:54.481Z,57.90
2018-06-18T08:49:23.010Z,58.50
2018-06-18T08:51:56.775Z,58.70
2018-06-18T08:54:30.613Z,58.00
2018-06-18T08:57:04.430Z,57.70
2018-06-18T08:59:38.279Z,57.30
2018-06-18T09:02:06.806Z,57.20
2018-06-18T09:04:40.601Z,56.30
2018-06-18T09:07:15.454Z,55.70
2018-06-18T09:09:45.066Z,56.10
2018-06-18T09:12:13.566Z,56.30
2018-06-18T09:21:27.146Z,56.60
2018-06-18T09:23:55.686Z,54.30
2018-06-18T09:26:24.511Z,54.90
2018-06-18T09:28:53.198Z,54.30
2018-06-18T09:31:21.723Z,54.20
2018-06-18T09:33:50.197Z,53.80
2018-06-18T09:36:18.725Z,54.00
2018-06-18T09:38:47.194Z,53.30
2018-06-18T09:41:15.670Z,53.30
2018-06-18T09:43:44.354Z,54.10
2018-06-18T09:46:12.834Z,53.80
2018-06-18T09:48:46.982Z,53.20
2018-06-18T09:53:54.504Z,52.10
2018-06-18T09:59:01.827Z,52.30
2018-06-18T10:01:33.898Z,51.50
2018-06-18T10:04:04.017Z,51.90
2018-06-18T10:06:35.565Z,52.00
2018-06-18T10:09:06.952Z,51.40
2018-06-18T10:11:36.125Z,51.20
2018-06-18T10:14:05.867Z,50.90
2018-06-18T10:16:34.398Z,50.90
2018-06-18T10:19:02.890Z,51.20
2018-06-18T10:21:31.386Z,51.10
2018-06-18T10:23:59.957Z,51.30
2018-06-18T10:28:56.571Z,51.40
2018-06-18T10:31:25.172Z,51.90
2018-06-18T10:33:59.177Z,52.40
2018-06-18T10:36:32.886Z,52.50
2018-06-18T10:39:06.572Z,51.00
2018-06-18T10:41:40.461Z,51.60
2018-06-18T10:44:09.091Z,51.10
2018-06-18T10:46:37.559Z,51.10
2018-06-18T10:49:06.157Z,51.10
2018-06-18T10:51:34.599Z,51.40
2018-06-18T10:54:03.210Z,51.40
2018-06-18T10:56:31.938Z,50.80
2018-06-18T11:01:33.111Z,50.40
2018-06-18T11:04:02.622Z,50.10
2018-06-18T11:06:32.984Z,50.50
2018-06-18T11:09:01.508Z,50.00
2018-06-18T11:13:58.765Z,50.80
2018-06-18T11:16:27.509Z,50.70
2018-06-18T11:19:01.198Z,49.90
2018-06-18T11:21:35.123Z,49.40
2018-06-18T11:24:09.018Z,48.70
2018-06-18T11:26:42.955Z,48.20
2018-06-18T11:29:11.515Z,48.60
2018-06-18T11:31:40.074Z,49.10
2018-06-18T11:34:08.602Z,49.90
2018-06-18T11:36:37.103Z,50.20
2018-06-18T11:39:07.916Z,49.40
2018-06-18T11:41:36.465Z,49.20
2018-06-18T11:44:05.286Z,49.20
2018-06-18T11:49:02.290Z,50.40
2018-06-18T11:51:30.955Z,50.70
2018-06-18T11:53:59.439Z,51.60
2018-06-18T11:56:28.121Z,50.80
2018-06-18T11:59:01.963Z,50.70
2018-06-18T12:01:35.801Z,51.50
2018-06-18T12:04:09.794Z,51.50
2018-06-18T12:06:43.562Z,52.10
2018-06-18T12:09:17.405Z,52.30
2018-06-18T12:11:46.643Z,52.30
2018-06-18T12:16:43.991Z,52.30
2018-06-18T12:19:12.533Z,52.40
2018-06-18T12:21:41.034Z,52.60
2018-06-18T12:24:09.686Z,53.00
2018-06-18T12:26:38.290Z,53.30
2018-06-18T12:29:06.773Z,53.10
2018-06-18T12:31:35.271Z,53.30
2018-06-18T12:34:03.826Z,53.30
2018-06-18T12:36:32.428Z,52.90
2018-06-18T12:39:01.075Z,52.10
2018-06-18T12:43:59.459Z,51.00
2018-06-18T12:46:33.399Z,50.90
2018-06-18T12:49:07.122Z,49.90
2018-06-18T12:51:40.998Z,49.80
2018-06-18T12:54:14.638Z,50.00
2018-06-18T12:56:48.466Z,50.80
2018-06-18T12:59:17.109Z,50.90
2018-06-18T13:01:52.018Z,50.60
2018-06-18T13:04:20.582Z,51.20
2018-06-18T13:06:49.049Z,50.60
2018-06-18T13:09:17.566Z,50.80
2018-06-18T13:11:46.039Z,50.90
2018-06-18T13:14:14.651Z,50.60
2018-06-18T13:16:43.954Z,51.30
2018-06-18T13:19:12.438Z,50.60
2018-06-18T13:21:41.118Z,50.40
2018-06-18T13:24:09.706Z,49.00
2018-06-18T13:26:38.308Z,48.80
2018-06-18T13:31:35.266Z,48.70
2018-06-18T13:34:03.966Z,48.20
2018-06-18T13:36:32.419Z,48.40
2018-06-18T13:39:06.274Z,48.10
2018-06-18T13:41:39.943Z,48.30
2018-06-18T13:44:13.805Z,48.40
2018-06-18T13:46:47.433Z,48.40
2018-06-18T13:49:15.934Z,49.00
2018-06-18T13:51:44.414Z,49.00
2018-06-18T13:54:12.931Z,49.30
2018-06-18T13:56:41.502Z,48.10
2018-06-18T13:59:09.986Z,48.70
2018-06-18T14:04:06.770Z,48.60
2018-06-18T14:08:04.438Z,48.40
2018-06-18T14:10:32.949Z,49.00
2018-06-18T14:13:01.394Z,48.90
2018-06-18T14:15:29.971Z,48.70
2018-06-18T14:20:27.462Z,49.00
2018-06-18T14:22:55.981Z,49.00
2018-06-18T14:25:24.542Z,49.50
2018-06-18T14:27:53.021Z,49.50
2018-06-18T14:30:26.948Z,49.50
2018-06-18T14:33:00.730Z,49.30
2018-06-18T14:35:34.476Z,50.30
2018-06-18T14:38:08.140Z,49.60
2018-06-18T14:40:36.896Z,48.30
2018-06-18T14:43:05.922Z,48.50
2018-06-18T14:45:34.453Z,48.40
2018-06-18T14:48:03.122Z,48.30
2018-06-18T14:50:31.654Z,48.30
2018-06-18T14:53:00.163Z,46.90
2018-06-18T14:55:28.690Z,46.60
2018-06-18T14:57:57.258Z,46.60
2018-06-18T15:00:28.452Z,46.50
2018-06-18T15:02:57.047Z,47.30
2018-06-18T15:05:28.299Z,46.80
2018-06-18T15:07:56.944Z,46.90
2018-06-18T15:10:29.699Z,46.80
2018-06-18T15:12:58.302Z,47.10
2018-06-18T15:15:32.277Z,47.30
2018-06-18T15:18:00.848Z,48.10
2018-06-18T15:20:29.448Z,48.80
2018-06-18T15:23:01.177Z,49.60
2018-06-18T15:25:40.451Z,49.60
2018-06-18T15:28:09.106Z,49.70
2018-06-18T15:30:37.624Z,49.90
2018-06-18T15:33:06.182Z,49.40
2018-06-18T15:35:34.766Z,49.80
2018-06-18T15:38:04.000Z,50.40
2018-06-18T15:40:32.502Z,51.40
2018-06-18T15:43:01.446Z,51.90
2018-06-18T15:45:30.051Z,52.30
2018-06-18T15:50:26.968Z,53.20
2018-06-18T15:52:55.523Z,53.80
2018-06-18T15:55:24.058Z,54.50
2018-06-18T15:57:52.601Z,54.00
2018-06-18T16:00:21.083Z,54.60
2018-06-18T16:02:49.799Z,54.60
2018-06-18T16:05:18.606Z,55.10
2018-06-18T16:07:47.159Z,55.60
2018-06-18T16:10:15.655Z,55.70
2018-06-18T16:12:44.311Z,56.10
2018-06-18T16:15:13.083Z,57.10
2018-06-18T16:17:41.602Z,57.20
2018-06-18T16:20:10.203Z,57.70
2018-06-18T16:22:38.707Z,58.00
2018-06-18T16:25:07.229Z,58.20
2018-06-18T16:27:35.730Z,58.30
2018-06-18T16:30:04.696Z,58.20
2018-06-18T16:32:33.234Z,58.20
2018-06-18T16:35:01.804Z,58.30
2018-06-18T16:37:30.438Z,58.20
2018-06-18T16:39:58.941Z,58.40
2018-06-18T16:42:27.595Z,58.40
2018-06-18T16:44:56.198Z,58.40
2018-06-18T16:47:24.707Z,58.40
2018-06-18T16:49:53.313Z,58.20
2018-06-18T16:52:21.934Z,57.80
2018-06-18T16:54:50.431Z,58.30
2018-06-18T16:57:18.981Z,58.50
2018-06-18T16:59:47.826Z,58.80
2018-06-18T17:02:16.467Z,58.90
2018-06-18T17:04:45.217Z,58.80
2018-06-18T17:07:13.806Z,59.10
2018-06-18T17:09:42.318Z,58.90
2018-06-18T17:12:10.890Z,59.00
2018-06-18T17:14:39.426Z,59.40
2018-06-18T17:17:08.034Z,59.60
2018-06-18T17:19:36.564Z,59.80
2018-06-18T17:22:05.225Z,60.20
2018-06-18T17:24:33.913Z,61.00
2018-06-18T17:27:02.592Z,61.90
2018-06-18T17:29:31.397Z,62.30
2018-06-18T17:32:00.014Z,63.10
2018-06-18T17:34:28.613Z,63.60
2018-06-18T17:36:57.100Z,64.10
2018-06-18T17:39:25.677Z,64.60
2018-06-18T17:41:54.210Z,65.10
2018-06-18T17:44:22.709Z,65.60
2018-06-18T17:46:51.203Z,66.30
2018-06-18T17:49:19.727Z,66.40
2018-06-18T17:51:48.190Z,66.50
2018-06-18T17:54:16.687Z,66.50
2018-06-18T17:56:45.242Z,66.00
2018-06-18T17:59:13.750Z,66.00
2018-06-18T18:01:42.232Z,66.60
2018-06-18T18:04:10.779Z,66.90
2018-06-18T18:06:39.372Z,67.30
2018-06-18T18:09:09.038Z,67.30
2018-06-18T18:14:05.921Z,67.30
2018-06-18T18:16:34.417Z,67.80
2018-06-18T18:19:03.985Z,68.30
2018-06-18T18:21:32.650Z,68.80
2018-06-18T18:24:01.194Z,69.40
2018-06-18T18:26:29.818Z,70.00
2018-06-18T18:28:58.282Z,70.70
2018-06-18T18:31:26.876Z,71.50
2018-06-18T18:33:55.502Z,72.40
2018-06-18T18:36:24.102Z,72.80
2018-06-18T18:38:52.571Z,73.00
2018-06-18T18:41:21.150Z,73.20
2018-06-18T18:43:49.750Z,73.10
2018-06-18T18:46:18.245Z,73.20
2018-06-18T18:48:46.918Z,73.10
2018-06-18T18:51:15.545Z,73.20
2018-06-18T18:53:44.007Z,73.60
2018-06-18T18:56:23.793Z,74.30
2018-06-18T18:59:26.739Z,75.00
2018-06-18T19:01:55.369Z,75.90
2018-06-18T19:04:26.775Z,76.60
2018-06-18T19:06:55.323Z,77.10
2018-06-18T19:09:26.646Z,77.70
2018-06-18T19:11:55.232Z,78.10
2018-06-18T19:14:23.734Z,78.90
2018-06-18T19:16:52.406Z,79.30
2018-06-18T19:19:22.257Z,79.40
2018-06-18T19:21:50.830Z,79.50
2018-06-18T19:24:19.441Z,79.60
2018-06-18T19:26:47.950Z,79.00
2018-06-18T19:29:16.439Z,79.00
2018-06-18T19:31:45.618Z,79.10
2018-06-18T19:34:16.342Z,79.30
2018-06-18T19:39:22.289Z,79.90
2018-06-18T19:41:50.810Z,80.40
2018-06-18T19:51:03.658Z,80.50
2018-06-18T19:53:36.689Z,81.00
2018-06-18T19:56:05.285Z,81.10
2018-06-18T19:58:33.778Z,81.40
2018-06-18T20:01:04.566Z,81.60
2018-06-18T20:03:33.254Z,81.60
2018-06-18T20:06:01.899Z,81.60
2018-06-18T20:08:31.267Z,81.50
2018-06-18T20:10:59.809Z,81.40
2018-06-18T20:13:28.477Z,81.30
2018-06-18T20:15:57.034Z,81.30
2018-06-18T20:18:25.695Z,81.40
2018-06-18T20:20:54.282Z,81.40
2018-06-18T20:23:24.510Z,81.40
2018-06-18T20:26:11.909Z,81.60
2018-06-18T20:28:40.419Z,81.90
2018-06-18T20:31:08.934Z,81.90
2018-06-18T20:33:41.210Z,82.10
2018-06-18T20:36:11.792Z,82.10
2018-06-18T20:38:40.376Z,82.10
2018-06-18T20:43:45.198Z,82.60
2018-06-18T20:46:13.698Z,83.00
2018-06-18T20:48:42.657Z,83.20
2018-06-18T20:51:11.153Z,83.30
2018-06-18T20:53:39.712Z,83.50
2018-06-18T20:56:08.219Z,83.70
2018-06-18T20:58:36.765Z,83.70
2018-06-18T21:01:05.927Z,83.70
2018-06-18T21:03:34.454Z,83.80
2018-06-18T21:06:02.969Z,83.20
2018-06-18T21:08:31.518Z,83.80
2018-06-18T21:11:00.122Z,83.90
2018-06-18T21:13:28.739Z,84.00
2018-06-18T21:15:57.492Z,84.40
2018-06-18T21:18:25.954Z,84.80
2018-06-18T21:20:54.410Z,85.00
2018-06-18T21:23:22.892Z,85.10
2018-06-18T21:25:51.361Z,85.70
2018-06-18T21:28:19.838Z,86.50
2018-06-18T21:30:48.715Z,86.20
2018-06-18T21:33:17.195Z,86.30
2018-06-18T21:35:45.833Z,86.70
2018-06-18T21:38:14.356Z,87.20
2018-06-18T21:40:42.839Z,87.50
2018-06-18T21:43:11.562Z,88.00
2018-06-18T21:45:40.175Z,88.80
2018-06-18T21:50:36.789Z,89.70
2018-06-18T21:53:05.390Z,90.10
2018-06-18T21:55:33.850Z,90.20
2018-06-18T21:58:02.455Z,90.50
2018-06-18T22:00:33.425Z,90.60
2018-06-18T22:03:01.885Z,91.00
2018-06-18T22:05:30.362Z,90.90
2018-06-18T22:07:59.235Z,91.30
2018-06-18T22:10:27.844Z,91.40
2018-06-18T22:12:56.476Z,91.60
2018-06-18T22:15:25.170Z,91.70
2018-06-18T22:17:53.850Z,91.70
2018-06-18T22:20:22.544Z,91.80
2018-06-18T22:22:51.101Z,91.70
2018-06-18T22:30:16.068Z,91.60
2018-06-18T22:32:44.563Z,91.60
2018-06-18T22:35:13.054Z,91.60
2018-06-18T22:37:41.545Z,91.70
2018-06-18T22:40:10.139Z,91.70
2018-06-18T22:42:38.718Z,91.80
2018-06-18T22:45:09.486Z,92.00
2018-06-18T22:47:37.954Z,92.10
2018-06-18T22:50:06.850Z,92.20
2018-06-18T22:52:35.454Z,92.20
2018-06-18T22:55:03.985Z,92.20
2018-06-18T22:57:32.475Z,92.10
2018-06-18T23:00:00.986Z,92.10
2018-06-18T23:02:31.345Z,91.90
2018-06-18T23:04:59.917Z,91.80
2018-06-18T23:07:28.454Z,91.60
2018-06-18T23:09:56.989Z,91.60
2018-06-18T23:12:35.439Z,91.60
2018-06-18T23:15:04.070Z,91.90
2018-06-18T23:17:32.601Z,91.50
2018-06-18T23:20:01.258Z,91.60
2018-06-18T23:22:29.822Z,91.50
2018-06-18T23:24:58.517Z,91.50
2018-06-18T23:27:27.172Z,91.40
2018-06-18T23:29:55.971Z,91.20
2018-06-18T23:32:24.443Z,90.80
2018-06-18T23:34:53.106Z,90.70
2018-06-18T23:37:21.570Z,90.50
2018-06-18T23:39:50.080Z,90.40
2018-06-18T23:42:18.826Z,90.40
2018-06-18T23:44:47.396Z,90.40
2018-06-18T23:47:15.869Z,90.60
2018-06-18T23:49:44.681Z,90.80
2018-06-18T23:52:13.258Z,91.00
2018-06-18T23:54:41.818Z,91.50
2018-06-18T23:57:10.347Z,91.20
2018-06-18T23:59:39.166Z,91.30
